sensor_id;sensor_type;location;lat;lon;timestamp;P1;durP1;ratioP1;P2;durP2;ratioP2
20026;SDS011;10174;42.688;23.344;2022-12-24T00:02:25;67.97;;;32.10;;
20026;SDS011;10174;42.688;23.344;2022-12-24T00:04:51;80.40;;;32.55;;
20026;SDS011;10174;42.688;23.344;2022-12-24T00:07:16;70.60;;;32.13;;
20026;SDS011;10174;42.688;23.344;2022-12-24T00:09:41;70.00;;;31.63;;
20026;SDS011;10174;42.688;23.344;2022-12-24T00:12:07;77.28;;;31.40;;
20026;SDS011;10174;42.688;23.344;2022-12-24T00:14:32;75.38;;;32.55;;
20026;SDS011;10174;42.688;23.344;2022-12-24T00:16:57;75.90;;;33.03;;
20026;SDS011;10174;42.688;23.344;2022-12-24T00:19:23;78.90;;;33.78;;
20026;SDS011;10174;42.688;23.344;2022-12-24T00:21:48;71.18;;;31.90;;
20026;SDS011;10174;42.688;23.344;2022-12-24T00:24:14;69.28;;;30.67;;
20026;SDS011;10174;42.688;23.344;2022-12-24T00:26:39;75.78;;;33.00;;
20026;SDS011;10174;42.688;23.344;2022-12-24T00:29:05;78.45;;;31.63;;
20026;SDS011;10174;42.688;23.344;2022-12-24T00:31:30;73.32;;;32.33;;
20026;SDS011;10174;42.688;23.344;2022-12-24T00:33:56;79.38;;;32.88;;
20026;SDS011;10174;42.688;23.344;2022-12-24T00:36:21;75.95;;;32.10;;
20026;SDS011;10174;42.688;23.344;2022-12-24T00:38:47;76.00;;;32.03;;
20026;SDS011;10174;42.688;23.344;2022-12-24T00:41:12;71.72;;;33.30;;
20026;SDS011;10174;42.688;23.344;2022-12-24T00:46:19;74.22;;;31.15;;
20026;SDS011;10174;42.688;23.344;2022-12-24T00:48:45;73.95;;;32.50;;
20026;SDS011;10174;42.688;23.344;2022-12-24T00:51:10;131.02;;;53.45;;
20026;SDS011;10174;42.688;23.344;2022-12-24T00:53:35;141.25;;;59.17;;
20026;SDS011;10174;42.688;23.344;2022-12-24T00:56:01;105.65;;;41.67;;
20026;SDS011;10174;42.688;23.344;2022-12-24T00:58:26;82.93;;;34.17;;
20026;SDS011;10174;42.688;23.344;2022-12-24T01:00:51;86.07;;;35.88;;
20026;SDS011;10174;42.688;23.344;2022-12-24T01:03:17;75.55;;;33.25;;
20026;SDS011;10174;42.688;23.344;2022-12-24T01:05:42;101.65;;;44.58;;
20026;SDS011;10174;42.688;23.344;2022-12-24T01:08:08;87.63;;;38.10;;
20026;SDS011;10174;42.688;23.344;2022-12-24T01:10:33;98.60;;;42.22;;
20026;SDS011;10174;42.688;23.344;2022-12-24T01:13:02;94.05;;;40.53;;
20026;SDS011;10174;42.688;23.344;2022-12-24T01:15:27;105.93;;;41.65;;
20026;SDS011;10174;42.688;23.344;2022-12-24T01:17:53;101.95;;;45.17;;
20026;SDS011;10174;42.688;23.344;2022-12-24T01:20:19;124.28;;;51.25;;
20026;SDS011;10174;42.688;23.344;2022-12-24T01:22:44;143.93;;;59.65;;
20026;SDS011;10174;42.688;23.344;2022-12-24T01:25:10;135.43;;;54.38;;
20026;SDS011;10174;42.688;23.344;2022-12-24T01:27:36;117.50;;;50.20;;
20026;SDS011;10174;42.688;23.344;2022-12-24T01:30:01;209.13;;;86.68;;
20026;SDS011;10174;42.688;23.344;2022-12-24T01:32:28;133.10;;;56.33;;
20026;SDS011;10174;42.688;23.344;2022-12-24T01:34:53;144.55;;;58.58;;
20026;SDS011;10174;42.688;23.344;2022-12-24T01:37:18;157.00;;;66.78;;
20026;SDS011;10174;42.688;23.344;2022-12-24T01:39:44;155.10;;;65.80;;
20026;SDS011;10174;42.688;23.344;2022-12-24T01:42:19;160.32;;;66.20;;
20026;SDS011;10174;42.688;23.344;2022-12-24T01:48:02;118.90;;;49.20;;
20026;SDS011;10174;42.688;23.344;2022-12-24T01:50:28;151.32;;;63.38;;
20026;SDS011;10174;42.688;23.344;2022-12-24T01:52:54;176.07;;;72.55;;
20026;SDS011;10174;42.688;23.344;2022-12-24T01:55:20;224.35;;;93.45;;
20026;SDS011;10174;42.688;23.344;2022-12-24T01:57:53;212.95;;;91.95;;
20026;SDS011;10174;42.688;23.344;2022-12-24T02:00:21;226.38;;;93.90;;
20026;SDS011;10174;42.688;23.344;2022-12-24T02:02:47;227.15;;;92.75;;
20026;SDS011;10174;42.688;23.344;2022-12-24T02:05:19;238.13;;;99.15;;
20026;SDS011;10174;42.688;23.344;2022-12-24T02:07:51;231.52;;;96.93;;
20026;SDS011;10174;42.688;23.344;2022-12-24T02:10:17;264.60;;;109.22;;
20026;SDS011;10174;42.688;23.344;2022-12-24T02:12:43;264.00;;;112.20;;
20026;SDS011;10174;42.688;23.344;2022-12-24T02:15:12;275.88;;;112.80;;
20026;SDS011;10174;42.688;23.344;2022-12-24T02:17:59;285.40;;;116.78;;
20026;SDS011;10174;42.688;23.344;2022-12-24T02:26:21;258.25;;;109.40;;
20026;SDS011;10174;42.688;23.344;2022-12-24T02:32:20;293.55;;;116.07;;
20026;SDS011;10174;42.688;23.344;2022-12-24T02:34:50;278.35;;;116.18;;
20026;SDS011;10174;42.688;23.344;2022-12-24T02:37:57;281.40;;;118.38;;
20026;SDS011;10174;42.688;23.344;2022-12-24T02:40:27;287.33;;;120.55;;
20026;SDS011;10174;42.688;23.344;2022-12-24T02:42:58;283.35;;;117.57;;
20026;SDS011;10174;42.688;23.344;2022-12-24T02:45:28;273.58;;;116.38;;
20026;SDS011;10174;42.688;23.344;2022-12-24T02:47:57;286.70;;;121.72;;
20026;SDS011;10174;42.688;23.344;2022-12-24T02:50:23;303.27;;;141.20;;
20026;SDS011;10174;42.688;23.344;2022-12-24T02:52:49;266.23;;;114.65;;
20026;SDS011;10174;42.688;23.344;2022-12-24T02:55:22;268.08;;;110.38;;
20026;SDS011;10174;42.688;23.344;2022-12-24T03:01:02;264.60;;;111.57;;
20026;SDS011;10174;42.688;23.344;2022-12-24T03:03:48;266.23;;;113.22;;
20026;SDS011;10174;42.688;23.344;2022-12-24T03:08:59;276.77;;;113.85;;
20026;SDS011;10174;42.688;23.344;2022-12-24T03:11:31;248.48;;;103.30;;
20026;SDS011;10174;42.688;23.344;2022-12-24T03:14:00;243.23;;;99.53;;
20026;SDS011;10174;42.688;23.344;2022-12-24T03:16:27;237.55;;;103.78;;
20026;SDS011;10174;42.688;23.344;2022-12-24T03:18:53;277.88;;;115.05;;
20026;SDS011;10174;42.688;23.344;2022-12-24T03:21:30;216.75;;;90.72;;
20026;SDS011;10174;42.688;23.344;2022-12-24T03:24:03;203.88;;;86.82;;
20026;SDS011;10174;42.688;23.344;2022-12-24T03:26:28;247.65;;;105.25;;
20026;SDS011;10174;42.688;23.344;2022-12-24T03:28:57;250.60;;;102.80;;
20026;SDS011;10174;42.688;23.344;2022-12-24T03:31:22;274.73;;;113.13;;
20026;SDS011;10174;42.688;23.344;2022-12-24T03:33:48;266.20;;;114.07;;
20026;SDS011;10174;42.688;23.344;2022-12-24T03:36:13;276.85;;;113.75;;
20026;SDS011;10174;42.688;23.344;2022-12-24T03:38:39;268.60;;;115.10;;
20026;SDS011;10174;42.688;23.344;2022-12-24T03:41:05;269.92;;;115.30;;
20026;SDS011;10174;42.688;23.344;2022-12-24T03:43:31;260.85;;;114.05;;
20026;SDS011;10174;42.688;23.344;2022-12-24T03:45:57;250.65;;;107.38;;
20026;SDS011;10174;42.688;23.344;2022-12-24T03:48:22;239.45;;;101.60;;
20026;SDS011;10174;42.688;23.344;2022-12-24T03:50:48;257.80;;;104.32;;
20026;SDS011;10174;42.688;23.344;2022-12-24T03:53:13;246.82;;;103.53;;
20026;SDS011;10174;42.688;23.344;2022-12-24T03:55:39;235.00;;;101.82;;
20026;SDS011;10174;42.688;23.344;2022-12-24T03:58:04;249.43;;;105.80;;
20026;SDS011;10174;42.688;23.344;2022-12-24T04:00:30;244.10;;;102.00;;
20026;SDS011;10174;42.688;23.344;2022-12-24T04:02:55;234.13;;;97.45;;
20026;SDS011;10174;42.688;23.344;2022-12-24T04:05:21;238.20;;;103.57;;
20026;SDS011;10174;42.688;23.344;2022-12-24T04:07:46;236.25;;;101.93;;
20026;SDS011;10174;42.688;23.344;2022-12-24T04:10:12;248.30;;;103.00;;
20026;SDS011;10174;42.688;23.344;2022-12-24T04:12:39;260.17;;;110.15;;
20026;SDS011;10174;42.688;23.344;2022-12-24T04:15:04;238.10;;;98.10;;
20026;SDS011;10174;42.688;23.344;2022-12-24T04:17:30;247.50;;;100.47;;
20026;SDS011;10174;42.688;23.344;2022-12-24T04:19:56;245.45;;;103.57;;
20026;SDS011;10174;42.688;23.344;2022-12-24T04:22:22;258.75;;;108.05;;
20026;SDS011;10174;42.688;23.344;2022-12-24T04:24:47;268.35;;;110.88;;
20026;SDS011;10174;42.688;23.344;2022-12-24T04:27:13;271.13;;;112.80;;
20026;SDS011;10174;42.688;23.344;2022-12-24T04:29:39;270.27;;;116.20;;
20026;SDS011;10174;42.688;23.344;2022-12-24T04:32:04;274.48;;;119.78;;
20026;SDS011;10174;42.688;23.344;2022-12-24T04:34:30;277.20;;;117.88;;
20026;SDS011;10174;42.688;23.344;2022-12-24T04:36:55;281.52;;;116.45;;
20026;SDS011;10174;42.688;23.344;2022-12-24T04:39:20;291.27;;;123.30;;
20026;SDS011;10174;42.688;23.344;2022-12-24T04:41:46;273.73;;;115.97;;
20026;SDS011;10174;42.688;23.344;2022-12-24T04:44:11;267.33;;;111.82;;
20026;SDS011;10174;42.688;23.344;2022-12-24T04:46:36;264.42;;;111.38;;
20026;SDS011;10174;42.688;23.344;2022-12-24T04:49:02;270.30;;;114.15;;
20026;SDS011;10174;42.688;23.344;2022-12-24T04:51:27;273.35;;;117.05;;
20026;SDS011;10174;42.688;23.344;2022-12-24T04:53:53;270.92;;;112.13;;
20026;SDS011;10174;42.688;23.344;2022-12-24T04:56:21;247.95;;;103.97;;
20026;SDS011;10174;42.688;23.344;2022-12-24T04:58:52;263.35;;;110.35;;
20026;SDS011;10174;42.688;23.344;2022-12-24T05:01:25;250.27;;;105.15;;
20026;SDS011;10174;42.688;23.344;2022-12-24T05:03:52;253.73;;;106.63;;
20026;SDS011;10174;42.688;23.344;2022-12-24T05:06:20;258.77;;;107.32;;
20026;SDS011;10174;42.688;23.344;2022-12-24T05:08:47;254.32;;;106.95;;
20026;SDS011;10174;42.688;23.344;2022-12-24T05:11:14;254.27;;;105.85;;
20026;SDS011;10174;42.688;23.344;2022-12-24T05:13:40;256.45;;;108.35;;
20026;SDS011;10174;42.688;23.344;2022-12-24T05:16:09;246.73;;;104.20;;
20026;SDS011;10174;42.688;23.344;2022-12-24T05:18:36;260.38;;;109.75;;
20026;SDS011;10174;42.688;23.344;2022-12-24T05:21:02;239.65;;;99.65;;
20026;SDS011;10174;42.688;23.344;2022-12-24T05:23:31;258.65;;;101.97;;
20026;SDS011;10174;42.688;23.344;2022-12-24T05:26:39;242.65;;;101.75;;
20026;SDS011;10174;42.688;23.344;2022-12-24T05:29:08;244.07;;;100.97;;
20026;SDS011;10174;42.688;23.344;2022-12-24T05:31:36;244.75;;;99.75;;
20026;SDS011;10174;42.688;23.344;2022-12-24T05:34:03;248.90;;;98.10;;
20026;SDS011;10174;42.688;23.344;2022-12-24T05:36:29;259.02;;;102.47;;
20026;SDS011;10174;42.688;23.344;2022-12-24T05:38:54;248.13;;;100.53;;
20026;SDS011;10174;42.688;23.344;2022-12-24T05:41:20;243.45;;;102.75;;
20026;SDS011;10174;42.688;23.344;2022-12-24T05:43:45;260.10;;;102.60;;
20026;SDS011;10174;42.688;23.344;2022-12-24T05:46:12;255.60;;;103.70;;
20026;SDS011;10174;42.688;23.344;2022-12-24T05:48:39;226.25;;;91.47;;
20026;SDS011;10174;42.688;23.344;2022-12-24T05:51:06;224.82;;;90.10;;
20026;SDS011;10174;42.688;23.344;2022-12-24T05:53:32;222.23;;;90.82;;
20026;SDS011;10174;42.688;23.344;2022-12-24T05:56:05;239.52;;;95.10;;
20026;SDS011;10174;42.688;23.344;2022-12-24T05:58:33;248.77;;;100.55;;
20026;SDS011;10174;42.688;23.344;2022-12-24T06:01:00;262.45;;;104.65;;
20026;SDS011;10174;42.688;23.344;2022-12-24T06:03:26;238.88;;;96.65;;
20026;SDS011;10174;42.688;23.344;2022-12-24T06:06:01;248.75;;;101.00;;
20026;SDS011;10174;42.688;23.344;2022-12-24T06:08:35;222.15;;;91.80;;
20026;SDS011;10174;42.688;23.344;2022-12-24T06:11:02;228.65;;;92.55;;
20026;SDS011;10174;42.688;23.344;2022-12-24T06:13:29;225.20;;;90.10;;
20026;SDS011;10174;42.688;23.344;2022-12-24T06:15:56;235.05;;;95.95;;
20026;SDS011;10174;42.688;23.344;2022-12-24T06:18:23;215.82;;;88.93;;
20026;SDS011;10174;42.688;23.344;2022-12-24T06:20:50;208.20;;;84.72;;
20026;SDS011;10174;42.688;23.344;2022-12-24T06:23:19;212.55;;;86.70;;
20026;SDS011;10174;42.688;23.344;2022-12-24T06:25:45;221.00;;;89.80;;
20026;SDS011;10174;42.688;23.344;2022-12-24T06:28:10;206.95;;;85.80;;
20026;SDS011;10174;42.688;23.344;2022-12-24T06:30:36;224.38;;;89.25;;
20026;SDS011;10174;42.688;23.344;2022-12-24T06:33:01;236.02;;;94.10;;
20026;SDS011;10174;42.688;23.344;2022-12-24T06:35:26;234.05;;;94.25;;
20026;SDS011;10174;42.688;23.344;2022-12-24T06:37:52;229.13;;;93.22;;
20026;SDS011;10174;42.688;23.344;2022-12-24T06:40:17;236.07;;;91.32;;
20026;SDS011;10174;42.688;23.344;2022-12-24T06:42:43;236.77;;;93.65;;
20026;SDS011;10174;42.688;23.344;2022-12-24T06:45:08;242.45;;;95.00;;
20026;SDS011;10174;42.688;23.344;2022-12-24T06:47:34;243.98;;;92.60;;
20026;SDS011;10174;42.688;23.344;2022-12-24T06:49:59;246.35;;;91.78;;
20026;SDS011;10174;42.688;23.344;2022-12-24T06:52:25;255.52;;;97.50;;
20026;SDS011;10174;42.688;23.344;2022-12-24T06:54:50;229.80;;;92.38;;
20026;SDS011;10174;42.688;23.344;2022-12-24T06:57:15;252.10;;;95.03;;
20026;SDS011;10174;42.688;23.344;2022-12-24T06:59:41;226.00;;;92.07;;
20026;SDS011;10174;42.688;23.344;2022-12-24T07:02:07;225.80;;;90.30;;
20026;SDS011;10174;42.688;23.344;2022-12-24T07:04:33;218.50;;;88.07;;
20026;SDS011;10174;42.688;23.344;2022-12-24T07:06:58;228.57;;;90.57;;
20026;SDS011;10174;42.688;23.344;2022-12-24T07:09:24;253.02;;;101.10;;
20026;SDS011;10174;42.688;23.344;2022-12-24T07:11:49;271.35;;;111.03;;
20026;SDS011;10174;42.688;23.344;2022-12-24T07:14:14;270.67;;;107.00;;
20026;SDS011;10174;42.688;23.344;2022-12-24T07:16:40;256.05;;;108.53;;
20026;SDS011;10174;42.688;23.344;2022-12-24T07:19:05;279.85;;;113.05;;
20026;SDS011;10174;42.688;23.344;2022-12-24T07:21:31;268.65;;;109.80;;
20026;SDS011;10174;42.688;23.344;2022-12-24T07:23:56;263.58;;;106.88;;
20026;SDS011;10174;42.688;23.344;2022-12-24T07:26:21;246.95;;;104.65;;
20026;SDS011;10174;42.688;23.344;2022-12-24T07:28:47;242.15;;;102.55;;
20026;SDS011;10174;42.688;23.344;2022-12-24T07:31:12;258.08;;;107.75;;
20026;SDS011;10174;42.688;23.344;2022-12-24T07:33:38;250.80;;;102.20;;
20026;SDS011;10174;42.688;23.344;2022-12-24T07:36:04;246.60;;;100.68;;
20026;SDS011;10174;42.688;23.344;2022-12-24T07:38:31;217.13;;;88.25;;
20026;SDS011;10174;42.688;23.344;2022-12-24T07:40:58;211.00;;;90.10;;
20026;SDS011;10174;42.688;23.344;2022-12-24T07:43:24;172.30;;;74.22;;
20026;SDS011;10174;42.688;23.344;2022-12-24T07:45:55;172.85;;;74.13;;
20026;SDS011;10174;42.688;23.344;2022-12-24T07:48:22;161.48;;;68.38;;
20026;SDS011;10174;42.688;23.344;2022-12-24T07:50:48;137.93;;;62.65;;
20026;SDS011;10174;42.688;23.344;2022-12-24T07:53:14;132.40;;;58.60;;
20026;SDS011;10174;42.688;23.344;2022-12-24T07:55:40;141.80;;;61.53;;
20026;SDS011;10174;42.688;23.344;2022-12-24T07:58:05;137.30;;;59.47;;
20026;SDS011;10174;42.688;23.344;2022-12-24T08:00:30;126.78;;;57.90;;
20026;SDS011;10174;42.688;23.344;2022-12-24T08:02:56;138.50;;;58.55;;
20026;SDS011;10174;42.688;23.344;2022-12-24T08:05:24;135.85;;;59.22;;
20026;SDS011;10174;42.688;23.344;2022-12-24T08:07:50;161.32;;;64.13;;
20026;SDS011;10174;42.688;23.344;2022-12-24T08:10:15;215.43;;;90.68;;
20026;SDS011;10174;42.688;23.344;2022-12-24T08:12:41;212.75;;;94.07;;
20026;SDS011;10174;42.688;23.344;2022-12-24T08:15:06;225.68;;;96.40;;
20026;SDS011;10174;42.688;23.344;2022-12-24T08:17:32;226.10;;;94.55;;
20026;SDS011;10174;42.688;23.344;2022-12-24T08:19:57;237.40;;;96.07;;
20026;SDS011;10174;42.688;23.344;2022-12-24T08:22:23;218.57;;;94.88;;
20026;SDS011;10174;42.688;23.344;2022-12-24T08:24:48;227.38;;;94.10;;
20026;SDS011;10174;42.688;23.344;2022-12-24T08:27:13;224.10;;;91.82;;
20026;SDS011;10174;42.688;23.344;2022-12-24T08:29:39;202.38;;;91.18;;
20026;SDS011;10174;42.688;23.344;2022-12-24T08:32:04;214.45;;;92.05;;
20026;SDS011;10174;42.688;23.344;2022-12-24T08:34:29;218.60;;;93.78;;
20026;SDS011;10174;42.688;23.344;2022-12-24T08:36:55;204.65;;;91.68;;
20026;SDS011;10174;42.688;23.344;2022-12-24T08:39:20;219.52;;;89.38;;
20026;SDS011;10174;42.688;23.344;2022-12-24T08:41:45;198.60;;;88.20;;
20026;SDS011;10174;42.688;23.344;2022-12-24T08:44:11;205.07;;;92.32;;
20026;SDS011;10174;42.688;23.344;2022-12-24T08:46:36;203.38;;;87.43;;
20026;SDS011;10174;42.688;23.344;2022-12-24T08:49:02;206.45;;;85.47;;
20026;SDS011;10174;42.688;23.344;2022-12-24T08:51:27;195.35;;;85.10;;
20026;SDS011;10174;42.688;23.344;2022-12-24T08:53:52;190.38;;;87.90;;
20026;SDS011;10174;42.688;23.344;2022-12-24T08:56:18;197.32;;;83.43;;
20026;SDS011;10174;42.688;23.344;2022-12-24T08:58:43;179.60;;;78.45;;
20026;SDS011;10174;42.688;23.344;2022-12-24T09:01:12;178.30;;;79.30;;
20026;SDS011;10174;42.688;23.344;2022-12-24T09:03:39;185.30;;;79.80;;
20026;SDS011;10174;42.688;23.344;2022-12-24T09:06:05;181.63;;;79.78;;
20026;SDS011;10174;42.688;23.344;2022-12-24T09:08:31;173.50;;;75.53;;
20026;SDS011;10174;42.688;23.344;2022-12-24T09:11:01;183.60;;;83.10;;
20026;SDS011;10174;42.688;23.344;2022-12-24T09:13:31;187.75;;;79.38;;
20026;SDS011;10174;42.688;23.344;2022-12-24T09:15:57;178.73;;;82.15;;
20026;SDS011;10174;42.688;23.344;2022-12-24T09:18:23;220.25;;;99.13;;
20026;SDS011;10174;42.688;23.344;2022-12-24T09:20:49;219.88;;;102.07;;
20026;SDS011;10174;42.688;23.344;2022-12-24T09:23:15;189.65;;;89.30;;
20026;SDS011;10174;42.688;23.344;2022-12-24T09:25:43;218.35;;;96.05;;
20026;SDS011;10174;42.688;23.344;2022-12-24T09:28:09;198.60;;;91.50;;
20026;SDS011;10174;42.688;23.344;2022-12-24T09:30:35;196.73;;;86.68;;
20026;SDS011;10174;42.688;23.344;2022-12-24T09:33:01;183.10;;;80.03;;
20026;SDS011;10174;42.688;23.344;2022-12-24T09:35:26;167.07;;;77.43;;
20026;SDS011;10174;42.688;23.344;2022-12-24T09:37:52;181.90;;;79.47;;
20026;SDS011;10174;42.688;23.344;2022-12-24T09:40:28;182.68;;;78.47;;
20026;SDS011;10174;42.688;23.344;2022-12-24T09:43:00;177.45;;;74.15;;
20026;SDS011;10174;42.688;23.344;2022-12-24T09:45:36;171.33;;;74.93;;
20026;SDS011;10174;42.688;23.344;2022-12-24T09:48:13;176.27;;;75.72;;
20026;SDS011;10174;42.688;23.344;2022-12-24T09:50:48;175.00;;;77.07;;
20026;SDS011;10174;42.688;23.344;2022-12-24T09:55:59;167.80;;;77.03;;
20026;SDS011;10174;42.688;23.344;2022-12-24T09:58:41;168.63;;;75.05;;
20026;SDS011;10174;42.688;23.344;2022-12-24T10:01:12;161.40;;;67.20;;
20026;SDS011;10174;42.688;23.344;2022-12-24T10:03:39;148.10;;;64.22;;
20026;SDS011;10174;42.688;23.344;2022-12-24T10:06:22;146.75;;;64.43;;
20026;SDS011;10174;42.688;23.344;2022-12-24T10:20:33;138.05;;;57.15;;
20026;SDS011;10174;42.688;23.344;2022-12-24T10:26:07;122.05;;;53.80;;
20026;SDS011;10174;42.688;23.344;2022-12-24T10:28:49;127.57;;;54.00;;
20026;SDS011;10174;42.688;23.344;2022-12-24T10:34:22;135.00;;;56.72;;
20026;SDS011;10174;42.688;23.344;2022-12-24T10:36:49;124.32;;;56.15;;
20026;SDS011;10174;42.688;23.344;2022-12-24T10:39:19;127.25;;;54.88;;
20026;SDS011;10174;42.688;23.344;2022-12-24T10:41:47;127.53;;;55.15;;
20026;SDS011;10174;42.688;23.344;2022-12-24T10:44:16;138.57;;;59.92;;
20026;SDS011;10174;42.688;23.344;2022-12-24T10:46:45;118.65;;;54.65;;
20026;SDS011;10174;42.688;23.344;2022-12-24T10:49:13;128.55;;;57.65;;
20026;SDS011;10174;42.688;23.344;2022-12-24T10:51:48;133.70;;;56.85;;
20026;SDS011;10174;42.688;23.344;2022-12-24T10:54:22;128.30;;;57.10;;
20026;SDS011;10174;42.688;23.344;2022-12-24T10:56:50;129.95;;;58.95;;
20026;SDS011;10174;42.688;23.344;2022-12-24T10:59:24;126.45;;;57.38;;
20026;SDS011;10174;42.688;23.344;2022-12-24T11:01:50;143.65;;;61.55;;
20026;SDS011;10174;42.688;23.344;2022-12-24T11:04:16;130.10;;;59.53;;
20026;SDS011;10174;42.688;23.344;2022-12-24T11:07:03;147.40;;;62.05;;
20026;SDS011;10174;42.688;23.344;2022-12-24T11:09:31;133.05;;;60.30;;
20026;SDS011;10174;42.688;23.344;2022-12-24T11:12:03;141.40;;;59.30;;
20026;SDS011;10174;42.688;23.344;2022-12-24T11:14:38;177.67;;;74.23;;
20026;SDS011;10174;42.688;23.344;2022-12-24T11:17:04;134.23;;;59.33;;
20026;SDS011;10174;42.688;23.344;2022-12-24T11:19:31;131.77;;;58.50;;
20026;SDS011;10174;42.688;23.344;2022-12-24T11:22:00;125.65;;;56.70;;
20026;SDS011;10174;42.688;23.344;2022-12-24T11:24:35;128.90;;;58.58;;
20026;SDS011;10174;42.688;23.344;2022-12-24T11:29:58;124.78;;;57.90;;
20026;SDS011;10174;42.688;23.344;2022-12-24T11:32:46;127.20;;;57.35;;
20026;SDS011;10174;42.688;23.344;2022-12-24T11:35:38;115.65;;;54.67;;
20026;SDS011;10174;42.688;23.344;2022-12-24T11:38:08;124.18;;;56.38;;
20026;SDS011;10174;42.688;23.344;2022-12-24T11:40:40;126.07;;;55.08;;
20026;SDS011;10174;42.688;23.344;2022-12-24T11:43:18;115.85;;;53.72;;
20026;SDS011;10174;42.688;23.344;2022-12-24T11:45:50;114.00;;;52.67;;
20026;SDS011;10174;42.688;23.344;2022-12-24T11:48:35;119.47;;;53.85;;
20026;SDS011;10174;42.688;23.344;2022-12-24T11:51:02;95.38;;;44.42;;
20026;SDS011;10174;42.688;23.344;2022-12-24T11:56:04;72.85;;;36.47;;
20026;SDS011;10174;42.688;23.344;2022-12-24T11:58:40;81.85;;;41.00;;
20026;SDS011;10174;42.688;23.344;2022-12-24T12:01:13;102.18;;;42.10;;
20026;SDS011;10174;42.688;23.344;2022-12-24T12:03:48;82.88;;;38.97;;
20026;SDS011;10174;42.688;23.344;2022-12-24T12:06:27;76.35;;;37.78;;
20026;SDS011;10174;42.688;23.344;2022-12-24T12:09:02;73.85;;;37.45;;
20026;SDS011;10174;42.688;23.344;2022-12-24T12:11:31;80.55;;;38.80;;
20026;SDS011;10174;42.688;23.344;2022-12-24T12:13:59;82.63;;;37.28;;
20026;SDS011;10174;42.688;23.344;2022-12-24T12:20:12;77.30;;;38.38;;
20026;SDS011;10174;42.688;23.344;2022-12-24T12:25:20;82.55;;;38.05;;
20026;SDS011;10174;42.688;23.344;2022-12-24T12:27:53;84.10;;;37.97;;
20026;SDS011;10174;42.688;23.344;2022-12-24T12:30:21;83.57;;;36.20;;
20026;SDS011;10174;42.688;23.344;2022-12-24T12:33:02;71.10;;;34.92;;
20026;SDS011;10174;42.688;23.344;2022-12-24T12:35:30;68.50;;;35.03;;
20026;SDS011;10174;42.688;23.344;2022-12-24T12:38:10;80.00;;;39.78;;
20026;SDS011;10174;42.688;23.344;2022-12-24T12:57:04;117.38;;;52.05;;
20026;SDS011;10174;42.688;23.344;2022-12-24T12:59:34;107.95;;;50.85;;
20026;SDS011;10174;42.688;23.344;2022-12-24T13:13:28;126.47;;;54.47;;
20026;SDS011;10174;42.688;23.344;2022-12-24T13:16:15;120.38;;;55.00;;
20026;SDS011;10174;42.688;23.344;2022-12-24T13:21:24;148.63;;;58.35;;
20026;SDS011;10174;42.688;23.344;2022-12-24T13:26:36;124.93;;;53.72;;
20026;SDS011;10174;42.688;23.344;2022-12-24T13:34:46;113.07;;;53.55;;
20026;SDS011;10174;42.688;23.344;2022-12-24T13:37:31;181.13;;;76.15;;
20026;SDS011;10174;42.688;23.344;2022-12-24T13:48:02;144.07;;;63.72;;
20026;SDS011;10174;42.688;23.344;2022-12-24T13:50:52;142.18;;;62.17;;
20026;SDS011;10174;42.688;23.344;2022-12-24T13:58:39;140.50;;;64.10;;
20026;SDS011;10174;42.688;23.344;2022-12-24T14:01:11;155.25;;;70.60;;
20026;SDS011;10174;42.688;23.344;2022-12-24T14:06:23;145.40;;;67.35;;
20026;SDS011;10174;42.688;23.344;2022-12-24T14:08:50;142.35;;;65.68;;
20026;SDS011;10174;42.688;23.344;2022-12-24T14:11:20;133.27;;;62.10;;
20026;SDS011;10174;42.688;23.344;2022-12-24T14:16:28;140.00;;;65.78;;
20026;SDS011;10174;42.688;23.344;2022-12-24T14:19:00;131.98;;;62.88;;
20026;SDS011;10174;42.688;23.344;2022-12-24T14:21:28;138.18;;;61.65;;
20026;SDS011;10174;42.688;23.344;2022-12-24T14:24:32;144.68;;;62.13;;
20026;SDS011;10174;42.688;23.344;2022-12-24T14:26:57;144.77;;;64.10;;
20026;SDS011;10174;42.688;23.344;2022-12-24T14:29:30;165.15;;;69.75;;
20026;SDS011;10174;42.688;23.344;2022-12-24T14:31:58;170.85;;;69.13;;
20026;SDS011;10174;42.688;23.344;2022-12-24T14:34:28;150.63;;;66.28;;
20026;SDS011;10174;42.688;23.344;2022-12-24T14:36:54;155.13;;;67.70;;
20026;SDS011;10174;42.688;23.344;2022-12-24T14:39:22;156.40;;;67.53;;
20026;SDS011;10174;42.688;23.344;2022-12-24T14:42:02;162.05;;;69.32;;
20026;SDS011;10174;42.688;23.344;2022-12-24T14:55:28;179.95;;;72.13;;
20026;SDS011;10174;42.688;23.344;2022-12-24T14:58:15;162.43;;;75.72;;
20026;SDS011;10174;42.688;23.344;2022-12-24T15:00:42;186.88;;;79.72;;
20026;SDS011;10174;42.688;23.344;2022-12-24T15:03:15;188.93;;;78.43;;
20026;SDS011;10174;42.688;23.344;2022-12-24T15:06:04;177.50;;;79.65;;
20026;SDS011;10174;42.688;23.344;2022-12-24T15:08:35;118.20;;;52.75;;
20026;SDS011;10174;42.688;23.344;2022-12-24T15:11:05;156.43;;;67.95;;
20026;SDS011;10174;42.688;23.344;2022-12-24T15:13:42;108.95;;;49.20;;
20026;SDS011;10174;42.688;23.344;2022-12-24T15:16:12;81.70;;;42.63;;
20026;SDS011;10174;42.688;23.344;2022-12-24T15:21:35;77.97;;;37.72;;
20026;SDS011;10174;42.688;23.344;2022-12-24T15:24:08;66.47;;;30.92;;
20026;SDS011;10174;42.688;23.344;2022-12-24T15:26:58;58.83;;;26.55;;
20026;SDS011;10174;42.688;23.344;2022-12-24T15:29:28;41.38;;;19.67;;
20026;SDS011;10174;42.688;23.344;2022-12-24T15:31:55;45.15;;;20.95;;
20026;SDS011;10174;42.688;23.344;2022-12-24T15:34:33;44.03;;;19.42;;
20026;SDS011;10174;42.688;23.344;2022-12-24T15:39:42;33.65;;;15.60;;
20026;SDS011;10174;42.688;23.344;2022-12-24T15:42:09;31.52;;;13.80;;
20026;SDS011;10174;42.688;23.344;2022-12-24T15:45:04;29.52;;;14.13;;
20026;SDS011;10174;42.688;23.344;2022-12-24T15:47:35;35.58;;;17.27;;
20026;SDS011;10174;42.688;23.344;2022-12-24T15:52:40;33.20;;;17.33;;
20026;SDS011;10174;42.688;23.344;2022-12-24T15:57:55;30.65;;;14.25;;
20026;SDS011;10174;42.688;23.344;2022-12-24T16:00:21;46.83;;;22.02;;
20026;SDS011;10174;42.688;23.344;2022-12-24T16:02:49;36.13;;;16.88;;
20026;SDS011;10174;42.688;23.344;2022-12-24T16:07:42;32.38;;;14.20;;
20026;SDS011;10174;42.688;23.344;2022-12-24T16:10:39;29.30;;;13.73;;
20026;SDS011;10174;42.688;23.344;2022-12-24T16:13:14;27.15;;;14.52;;
20026;SDS011;10174;42.688;23.344;2022-12-24T16:15:44;32.70;;;15.52;;
20026;SDS011;10174;42.688;23.344;2022-12-24T16:18:17;44.97;;;21.63;;
20026;SDS011;10174;42.688;23.344;2022-12-24T16:20:50;36.03;;;16.83;;
20026;SDS011;10174;42.688;23.344;2022-12-24T16:23:18;30.98;;;15.48;;